sensor_id;sensor_type;location;lat;lon;timestamp;pressure;altitude;pressure_sealevel;temperature;humidity
46382;BME280;66809;52.974;-2.514;2023-02-04T00:01:35;1027.2324602807273;;;7.195670003443124;41.642399810637684
46382;BME280;66809;52.974;-2.514;2023-02-04T00:03:34;1027.2470992167293;;;7.193342052954876;41.66838438108407
46382;BME280;66809;52.974;-2.514;2023-02-04T00:05:34;1027.262237530928;;;7.186163005175776;41.690070731147074
46382;BME280;66809;52.974;-2.514;2023-02-04T00:07:34;1027.277657144108;;;7.181439867399726;41.70628699947122
46382;BME280;66809;52.974;-2.514;2023-02-04T00:09:34;1027.2931440115146;;;7.183347444008605;41.717425295311386
46382;BME280;66809;52.974;-2.514;2023-02-04T00:11:34;1027.3086961056945;;;7.187340224803166;41.722021051343
46382;BME280;66809;52.974;-2.514;2023-02-04T00:13:34;1027.3246371305067;;;7.189312910064846;41.72261437034879
46382;BME280;66809;52.974;-2.514;2023-02-04T00:15:34;1027.3393185468944;;;7.19478077776058;41.722621685521055
46382;BME280;66809;52.974;-2.514;2023-02-04T00:17:34;1027.353246200896;;;7.193312336202424;41.72067750564104
46382;BME280;66809;52.974;-2.514;2023-02-04T00:19:34;1027.36580430066;;;7.189202636036029;41.71687598669133
46382;BME280;66809;52.974;-2.514;2023-02-04T00:21:34;1027.3772482460463;;;7.190500758233182;41.719515706033846
46382;BME280;66809;52.974;-2.514;2023-02-04T00:23:34;1027.3896096765932;;;7.193226964770206;41.721278213820675
46382;BME280;66809;52.974;-2.514;2023-02-04T00:25:35;1027.4005261017726;;;7.193709107198572;41.72109110620753
46382;BME280;66809;52.974;-2.514;2023-02-04T00:27:34;1027.4104694486068;;;7.193503905875717;41.71895111718568
46382;BME280;66809;52.974;-2.514;2023-02-04T00:29:34;1027.420265282141;;;7.194623735455847;41.72178443616885
46382;BME280;66809;52.974;-2.514;2023-02-04T00:31:34;1027.428835460353;;;7.1922792730922085;41.72334912768625
46382;BME280;66809;52.974;-2.514;2023-02-04T00:33:34;1027.4364351315176;;;7.192611360483313;41.726083183712824
46382;BME280;66809;52.974;-2.514;2023-02-04T00:35:34;1027.4429577178792;;;7.199709185330161;41.73213386362421
46382;BME280;66809;52.974;-2.514;2023-02-04T00:37:34;1027.4478851840179;;;7.198141423135963;41.74023411027196
46382;BME280;66809;52.974;-2.514;2023-02-04T00:39:35;1027.452146773361;;;7.199988295880277;41.7506687701715
46382;BME280;66809;52.974;-2.514;2023-02-04T00:41:34;1027.455730080234;;;7.193570511537895;41.756612890088476
46382;BME280;66809;52.974;-2.514;2023-02-04T00:43:34;1027.45908712463;;;7.185484567590723;41.766651447196345
46382;BME280;66809;52.974;-2.514;2023-02-04T00:45:34;1027.4610530283967;;;7.182326963846717;41.78175954448938
46382;BME280;66809;52.974;-2.514;2023-02-04T00:47:34;1027.4627226047135;;;7.17592131232839;41.79901514402663
46382;BME280;66809;52.974;-2.514;2023-02-04T00:49:34;1027.4619875451424;;;7.163737797114624;41.81168618133817
46382;BME280;66809;52.974;-2.514;2023-02-04T00:51:34;1027.4605602820184;;;7.159981118472356;41.82094404033395
46382;BME280;66809;52.974;-2.514;2023-02-04T00:53:34;1027.4578829796997;;;7.157093815314119;41.82882967196831
46382;BME280;66809;52.974;-2.514;2023-02-04T00:55:34;1027.4545695466174;;;7.146328001785096;41.84091318449675
46382;BME280;66809;52.974;-2.514;2023-02-04T00:57:34;1027.452013943566;;;7.143077716277527;41.85309477642446
46382;BME280;66809;52.974;-2.514;2023-02-04T00:59:34;1027.4510952917722;;;7.135992435900771;41.870839760383845
46382;BME280;66809;52.974;-2.514;2023-02-04T01:01:34;1027.4510508622136;;;7.136267557511479;41.8821426855907
46382;BME280;66809;52.974;-2.514;2023-02-04T01:03:34;1027.4500202892302;;;7.127236080222365;41.8954966853861
46382;BME280;66809;52.974;-2.514;2023-02-04T01:05:34;1027.4490191903271;;;7.1216457254140515;41.90553230145363
46382;BME280;66809;52.974;-2.514;2023-02-04T01:07:34;1027.4454567729615;;;7.110173791277057;41.91868771181648
46382;BME280;66809;52.974;-2.514;2023-02-04T01:09:34;1027.4425045881464;;;7.095276180570167;41.93418577333672
46382;BME280;66809;52.974;-2.514;2023-02-04T01:11:34;1027.4391377839017;;;7.083248194672391;41.95241658724536
46382;BME280;66809;52.974;-2.514;2023-02-04T01:13:34;1027.4376634957896;;;7.070973075430566;41.968011970708886
46382;BME280;66809;52.974;-2.514;2023-02-04T01:15:34;1027.4369726659802;;;7.053812643570887;41.98760448053021
46382;BME280;66809;52.974;-2.514;2023-02-04T01:17:34;1027.4369387014733;;;7.041622488093253;42.00904973955053
46382;BME280;66809;52.974;-2.514;2023-02-04T01:19:34;1027.4368318955944;;;7.038086459543062;42.0247418071515
46382;BME280;66809;52.974;-2.514;2023-02-04T01:21:34;1027.4362302868255;;;7.034398626842389;42.036339226764966
46382;BME280;66809;52.974;-2.514;2023-02-04T01:23:34;1027.4346173588053;;;7.030850470404915;42.04764624727789
46382;BME280;66809;52.974;-2.514;2023-02-04T01:25:34;1027.4333181275865;;;7.023150679056386;42.056804944065576
46382;BME280;66809;52.974;-2.514;2023-02-04T01:27:34;1027.4325024313252;;;7.015520394934637;42.0613758051379
46382;BME280;66809;52.974;-2.514;2023-02-04T01:29:34;1027.431919914639;;;7.0107597387644365;42.06730947637645
46382;BME280;66809;52.974;-2.514;2023-02-04T01:31:34;1027.4328234215402;;;7.000627884805007;42.07587490313271
46382;BME280;66809;52.974;-2.514;2023-02-04T01:33:34;1027.4334731591543;;;6.982076255694753;42.08921690580762
46382;BME280;66809;52.974;-2.514;2023-02-04T01:35:34;1027.4367554763637;;;6.971538836870625;42.10479330698667
46382;BME280;66809;52.974;-2.514;2023-02-04T01:37:34;1027.4405860067102;;;6.959603564522639;42.123780182993556
46382;BME280;66809;52.974;-2.514;2023-02-04T01:39:34;1027.4462735184284;;;6.946080682943646;42.138964629242516
46382;BME280;66809;52.974;-2.514;2023-02-04T01:41:34;1027.4526493943372;;;6.940034054078477;42.16546719602452
46382;BME280;66809;52.974;-2.514;2023-02-04T01:43:34;1027.4587625041072;;;6.932832294129891;42.18514263552286
46382;BME280;66809;52.974;-2.514;2023-02-04T01:45:35;1027.4667287820714;;;6.923950908340625;42.20316425655809
46382;BME280;66809;52.974;-2.514;2023-02-04T01:47:34;1027.4746924794538;;;6.915463392762123;42.21582173610011
46382;BME280;66809;52.974;-2.514;2023-02-04T01:49:34;1027.4840262885875;;;6.911448566424748;42.235590572128295
46382;BME280;66809;52.974;-2.514;2023-02-04T01:51:34;1027.4935228770014;;;6.907124157697758;42.25877266688304
46382;BME280;66809;52.974;-2.514;2023-02-04T01:53:35;1027.503342970005;;;6.895346667995486;42.28429695742133
46382;BME280;66809;52.974;-2.514;2023-02-04T01:55:34;1027.5127733969045;;;6.8868249500420875;42.30991755273303
46382;BME280;66809;52.974;-2.514;2023-02-04T01:57:35;1027.5222627234507;;;6.876251574268183;42.33817498927769
46382;BME280;66809;52.974;-2.514;2023-02-04T01:59:34;1027.5307236999327;;;6.8636278645736555;42.360391798891264
46382;BME280;66809;52.974;-2.514;2023-02-04T02:01:36;1027.5377903652072;;;6.851255702647095;42.38806305748106
46382;BME280;66809;52.974;-2.514;2023-02-04T02:03:34;1027.5456240656295;;;6.8339673320336;42.420706678700434
46382;BME280;66809;52.974;-2.514;2023-02-04T02:05:37;1027.5535495486895;;;6.818714511428955;42.46066176759532
46382;BME280;66809;52.974;-2.514;2023-02-04T02:07:35;1027.5636088722601;;;6.813563747166921;42.49915595892326
46382;BME280;66809;52.974;-2.514;2023-02-04T02:09:34;1027.574561046353;;;6.80957980693673;42.53326786502343
46382;BME280;66809;52.974;-2.514;2023-02-04T02:11:34;1027.5841023565492;;;6.804015973411357;42.56484990728767
46382;BME280;66809;52.974;-2.514;2023-02-04T02:13:34;1027.5928169401873;;;6.799764379310113;42.599361481504424
46382;BME280;66809;52.974;-2.514;2023-02-04T02:15:34;1027.5997563278866;;;6.8010699978560085;42.628899891601286
46382;BME280;66809;52.974;-2.514;2023-02-04T02:17:35;1027.6064910825205;;;6.798433164656536;42.655413286694085
46382;BME280;66809;52.974;-2.514;2023-02-04T02:19:36;1027.6134100848149;;;6.799297914276674;42.68182383013497
46382;BME280;66809;52.974;-2.514;2023-02-04T02:21:38;1027.6194156327356;;;6.786922004276051;42.703067476935935
46382;BME280;66809;52.974;-2.514;2023-02-04T02:23:45;1027.6248016066306;;;6.789285001709114;42.72841382071722
46382;BME280;66809;52.974;-2.514;2023-02-04T02:25:34;1027.6293331745278;;;6.788640684807059;42.75201241842778
46382;BME280;66809;52.974;-2.514;2023-02-04T02:27:34;1027.6326394240195;;;6.784485738112438;42.77512425913253
46382;BME280;66809;52.974;-2.514;2023-02-04T02:29:35;1027.6349248633878;;;6.7872156882896855;42.79511944112317
46382;BME280;66809;52.974;-2.514;2023-02-04T02:31:34;1027.6366493623916;;;6.7846053331148575;42.8125734826381
46382;BME280;66809;52.974;-2.514;2023-02-04T02:33:35;1027.638661956775;;;6.795214452880541;42.826911620362665
46382;BME280;66809;52.974;-2.514;2023-02-04T02:35:34;1027.6391092309225;;;6.790055082989154;42.83735840479503
46382;BME280;66809;52.974;-2.514;2023-02-04T02:37:34;1027.6390301723363;;;6.791035896182312;42.84535938286428
46382;BME280;66809;52.974;-2.514;2023-02-04T02:39:35;1027.6377125748231;;;6.792193675431466;42.85521126194593
46382;BME280;66809;52.974;-2.514;2023-02-04T02:41:34;1027.635389152125;;;6.788382511659389;42.86321035345273
46382;BME280;66809;52.974;-2.514;2023-02-04T02:43:35;1027.6317699996268;;;6.785054587838569;42.86973528675242
46382;BME280;66809;52.974;-2.514;2023-02-04T02:45:35;1027.6283511472652;;;6.7869890787152185;42.87723519650805
46382;BME280;66809;52.974;-2.514;2023-02-04T02:47:34;1027.6252112197221;;;6.789626356391057;42.886493571924206
46382;BME280;66809;52.974;-2.514;2023-02-04T02:49:35;1027.6209318700007;;;6.7890162446813775;42.89039197043093
46382;BME280;66809;52.974;-2.514;2023-02-04T02:51:35;1027.615248242824;;;6.7836373252964846;42.893411494953845
46382;BME280;66809;52.974;-2.514;2023-02-04T02:53:34;1027.6087412815139;;;6.779238557515767;42.89574967218508
46382;BME280;66809;52.974;-2.514;2023-02-04T02:55:34;1027.6020359440872;;;6.780246958052607;42.90090742112489
46382;BME280;66809;52.974;-2.514;2023-02-04T02:57:34;1027.5948175379988;;;6.774647832738681;42.9059560791608
46382;BME280;66809;52.974;-2.514;2023-02-04T02:59:34;1027.588270897909;;;6.773227267491237;42.9090403769388
46382;BME280;66809;52.974;-2.514;2023-02-04T03:01:34;1027.5823353025396;;;6.7652958187692445;42.916517637196726
46382;BME280;66809;52.974;-2.514;2023-02-04T03:03:36;1027.5779570124334;;;6.764601213314647;42.9190181276872
46382;BME280;66809;52.974;-2.514;2023-02-04T03:05:37;1027.5739196471304;;;6.762844146374022;42.914899386399426
46382;BME280;66809;52.974;-2.514;2023-02-04T03:07:35;1027.5706015207645;;;6.7580442487631744;42.91505716792332
46382;BME280;66809;52.974;-2.514;2023-02-04T03:09:34;1027.5659489798038;;;6.745826578958278;42.917542996611814
46382;BME280;66809;52.974;-2.514;2023-02-04T03:11:35;1027.5634278118278;;;6.735790535879746;42.92430930365683
46382;BME280;66809;52.974;-2.514;2023-02-04T03:13:34;1027.560482703732;;;6.725654753989621;42.93078619637876
46382;BME280;66809;52.974;-2.514;2023-02-04T03:15:34;1027.5574373664215;;;6.711846160390717;42.937458163513384
46382;BME280;66809;52.974;-2.514;2023-02-04T03:17:34;1027.5535126177133;;;6.696832794359117;42.94402611804973
46382;BME280;66809;52.974;-2.514;2023-02-04T03:19:34;1027.5493080030492;;;6.68106258496449;42.95361165927006
46382;BME280;66809;52.974;-2.514;2023-02-04T03:21:34;1027.5450344146561;;;6.664805828714722;42.96933952987454
46382;BME280;66809;52.974;-2.514;2023-02-04T03:23:35;1027.541775832195;;;6.636917883487871;42.98329676728027
46382;BME280;66809;52.974;-2.514;2023-02-04T03:25:34;1027.5383328084129;;;6.625024375016512;43.001054371676496
46382;BME280;66809;52.974;-2.514;2023-02-04T03:27:34;1027.5355338801223;;;6.61254524304484;43.01852580132275
46382;BME280;66809;52.974;-2.514;2023-02-04T03:29:41;1027.5321180076032;;;6.587573257643641;43.03784578397742
46382;BME280;66809;52.974;-2.514;2023-02-04T03:31:34;1027.5291896415017;;;6.571216097302389;43.055135352840324
46382;BME280;66809;52.974;-2.514;2023-02-04T03:33:34;1027.525467223694;;;6.5565734226864265;43.0694114585603
46382;BME280;66809;52.974;-2.514;2023-02-04T03:35:34;1027.521156538099;;;6.54764617486845;43.08504278574673
46382;BME280;66809;52.974;-2.514;2023-02-04T03:37:34;1027.5182852081655;;;6.530702079551594;43.10349774227283
46382;BME280;66809;52.974;-2.514;2023-02-04T03:39:35;1027.5157204175005;;;6.517979128202885;43.120491283685745
46382;BME280;66809;52.974;-2.514;2023-02-04T03:41:34;1027.5126416821372;;;6.506429401974417;43.1385570182109
46382;BME280;66809;52.974;-2.514;2023-02-04T03:43:34;1027.5120200821516;;;6.497937954063784;43.14961857621202
46382;BME280;66809;52.974;-2.514;2023-02-04T03:45:34;1027.5108404482164;;;6.4850638457239;43.15775514053905
46382;BME280;66809;52.974;-2.514;2023-02-04T03:47:34;1027.5100108067368;;;6.46988058527768;43.169683547802016
46382;BME280;66809;52.974;-2.514;2023-02-04T03:49:34;1027.5096825997196;;;6.463640275705919;43.17654493806972
46382;BME280;66809;52.974;-2.514;2023-02-04T03:51:34;1027.51061834025;;;6.452160061952058;43.186813796484074
46382;BME280;66809;52.974;-2.514;2023-02-04T03:53:34;1027.5120396039056;;;6.444043744720449;43.19863957983994
46382;BME280;66809;52.974;-2.514;2023-02-04T03:55:34;1027.5137216151372;;;6.4389773228181;43.204333151261395
46382;BME280;66809;52.974;-2.514;2023-02-04T03:57:34;1027.5148797054903;;;6.431096652180853;43.20642945284876
46382;BME280;66809;52.974;-2.514;2023-02-04T03:59:34;1027.515766078565;;;6.42063210251985;43.20979874584339
46382;BME280;66809;52.974;-2.514;2023-02-04T04:01:35;1027.5173684959466;;;6.412870572384936;43.20830540072639
46382;BME280;66809;52.974;-2.514;2023-02-04T04:03:34;1027.518225435489;;;6.407966520340549;43.20273062012344
46382;BME280;66809;52.974;-2.514;2023-02-04T04:05:34;1027.5202775623045;;;6.403240094195352;43.197644348080175
46382;BME280;66809;52.974;-2.514;2023-02-04T04:07:34;1027.5209994667885;;;6.399594878719997;43.18457017407865
46382;BME280;66809;52.974;-2.514;2023-02-04T04:09:34;1027.5230186464016;;;6.40459141971505;43.17286035859477
46382;BME280;66809;52.974;-2.514;2023-02-04T04:11:34;1027.5245454186395;;;6.404958167562245;43.163878597011575
46382;BME280;66809;52.974;-2.514;2023-02-04T04:13:34;1027.525992243735;;;6.404884709143834;43.15255626390754
46382;BME280;66809;52.974;-2.514;2023-02-04T04:15:35;1027.5294102574112;;;6.3985750922801055;43.143663335701596
46382;BME280;66809;52.974;-2.514;2023-02-04T04:17:34;1027.5332547430414;;;6.397049729969117;43.13116768253687
46382;BME280;66809;52.974;-2.514;2023-02-04T04:19:34;1027.5375267966788;;;6.391280720512914;43.1197441447417
46382;BME280;66809;52.974;-2.514;2023-02-04T04:21:35;1027.5427418077936;;;6.391852043048639;43.11269394761406
46382;BME280;66809;52.974;-2.514;2023-02-04T04:23:34;1027.5477874334383;;;6.390516470920502;43.10895005063408
46382;BME280;66809;52.974;-2.514;2023-02-04T04:25:34;1027.554544506255;;;6.37707156362959;43.10850275140684
46382;BME280;66809;52.974;-2.514;2023-02-04T04:27:34;1027.561978716438;;;6.370808128940856;43.10522188890025
46382;BME280;66809;52.974;-2.514;2023-02-04T04:29:34;1027.5711355734873;;;6.362590807559363;43.11020696160419
46382;BME280;66809;52.974;-2.514;2023-02-04T04:31:34;1027.5794576779997;;;6.353910104694603;43.116262851464306
46382;BME280;66809;52.974;-2.514;2023-02-04T04:33:35;1027.5897702389161;;;6.342650606403365;43.12289778556274
46382;BME280;66809;52.974;-2.514;2023-02-04T04:35:34;1027.6013762717298;;;6.33386243682319;43.12710889051664
46382;BME280;66809;52.974;-2.514;2023-02-04T04:37:34;1027.6132112109278;;;6.330507251529074;43.12674494847189
46382;BME280;66809;52.974;-2.514;2023-02-04T04:39:36;1027.6246661652763;;;6.315841474785324;43.12813982592791
46382;BME280;66809;52.974;-2.514;2023-02-04T04:41:36;1027.6370634350749;;;6.3051567698285;43.12436988191973
46382;BME280;66809;52.974;-2.514;2023-02-04T04:43:34;1027.6500878298118;;;6.290402103969752;43.13071170061193
46382;BME280;66809;52.974;-2.514;2023-02-04T04:45:34;1027.6622273397454;;;6.275276740870577;43.14221244291989
46382;BME280;66809;52.974;-2.514;2023-02-04T04:47:35;1027.6747990227234;;;6.2635417264671895;43.150416774790706
46382;BME280;66809;52.974;-2.514;2023-02-04T04:49:34;1027.688043192293;;;6.250351023549512;43.16019665308686
46382;BME280;66809;52.974;-2.514;2023-02-04T04:51:35;1027.702110707329;;;6.243187957969664;43.16336021848249
46382;BME280;66809;52.974;-2.514;2023-02-04T04:53:34;1027.7175154761424;;;6.23690530245573;43.163897413510504
46382;BME280;66809;52.974;-2.514;2023-02-04T04:55:34;1027.7323693051724;;;6.22035908346417;43.16413762005069
46382;BME280;66809;52.974;-2.514;2023-02-04T04:57:34;1027.7483523320059;;;6.219297599712471;43.163300707659374
46382;BME280;66809;52.974;-2.514;2023-02-04T04:59:34;1027.7648199655544;;;6.213382359531021;43.15749729093064
46382;BME280;66809;52.974;-2.514;2023-02-04T05:01:34;1027.7811161400737;;;6.201299810385923;43.14866632565123
46382;BME280;66809;52.974;-2.514;2023-02-04T05:03:34;1027.7978221815938;;;6.187695845876144;43.143728555076436
46382;BME280;66809;52.974;-2.514;2023-02-04T05:05:34;1027.8129078379584;;;6.173280974385036;43.13586905445864
46382;BME280;66809;52.974;-2.514;2023-02-04T05:07:34;1027.8287964123615;;;6.156244265731712;43.135030222078306
46382;BME280;66809;52.974;-2.514;2023-02-04T05:09:34;1027.8428071616283;;;6.148807611572887;43.133708020460816
46382;BME280;66809;52.974;-2.514;2023-02-04T05:11:34;1027.8559557108545;;;6.134025993385894;43.12936627655194
46382;BME280;66809;52.974;-2.514;2023-02-04T05:13:34;1027.8689657512773;;;6.1196614100896465;43.12522273822554
46382;BME280;66809;52.974;-2.514;2023-02-04T05:15:34;1027.8811001825675;;;6.111463479580235;43.116020152589996
46382;BME280;66809;52.974;-2.514;2023-02-04T05:17:34;1027.8935967764007;;;6.099168638398456;43.10584704230227
46382;BME280;66809;52.974;-2.514;2023-02-04T05:19:34;1027.906550868699;;;6.086062898287957;43.09060571577144
46382;BME280;66809;52.974;-2.514;2023-02-04T05:21:34;1027.9205461961624;;;6.074586690762454;43.07069524729901
46382;BME280;66809;52.974;-2.514;2023-02-04T05:23:34;1027.9332751034801;;;6.065501305565664;43.04854144166706
46382;BME280;66809;52.974;-2.514;2023-02-04T05:25:34;1027.9447978202834;;;6.0559242822841;43.023379653694754
46382;BME280;66809;52.974;-2.514;2023-02-04T05:27:35;1027.9562613157975;;;6.046486928848159;43.00357852430883
46382;BME280;66809;52.974;-2.514;2023-02-04T05:29:34;1027.9667753039732;;;6.043294107194307;42.97171572568739
46382;BME280;66809;52.974;-2.514;2023-02-04T05:31:34;1027.9783941047783;;;6.033524672630971;42.93945149065954
46382;BME280;66809;52.974;-2.514;2023-02-04T05:33:35;1027.9878258058925;;;6.020665439056597;42.90824553945132
46382;BME280;66809;52.974;-2.514;2023-02-04T05:35:34;1027.9967215458094;;;6.0115529757185735;42.88208769415278
46382;BME280;66809;52.974;-2.514;2023-02-04T05:37:34;1028.0047809759715;;;6.00016554339301;42.854283201046094
46382;BME280;66809;52.974;-2.514;2023-02-04T05:39:35;1028.0128654080186;;;5.986407194195885;42.825301863349964
46382;BME280;66809;52.974;-2.514;2023-02-04T05:41:34;1028.0209443392314;;;5.970162742858218;42.79874942625303
46382;BME280;66809;52.974;-2.514;2023-02-04T05:43:34;1028.0285279401187;;;5.95298710190091;42.76870619533792
46382;BME280;66809;52.974;-2.514;2023-02-04T05:45:34;1028.0357543890693;;;5.936290279546485;42.73224016617691
46382;BME280;66809;52.974;-2.514;2023-02-04T05:47:34;1028.0427595554934;;;5.925532863955977;42.69440236251675
46382;BME280;66809;52.974;-2.514;2023-02-04T05:49:35;1028.0489083059697;;;5.912010658169308;42.66375353633172
46382;BME280;66809;52.974;-2.514;2023-02-04T05:51:34;1028.0556895118964;;;5.888988801968186;42.633004886313195
46382;BME280;66809;52.974;-2.514;2023-02-04T05:53:34;1028.0614227798915;;;5.865495850262352;42.602935861102644
46382;BME280;66809;52.974;-2.514;2023-02-04T05:55:34;1028.0680654534865;;;5.846941609609801;42.579681996493335
46382;BME280;66809;52.974;-2.514;2023-02-04T05:57:34;1028.0744051266383;;;5.82790148586956;42.556626045098895
46382;BME280;66809;52.974;-2.514;2023-02-04T05:59:34;1028.0802149070519;;;5.804879639535558;42.54456943172146
46382;BME280;66809;52.974;-2.514;2023-02-04T06:01:34;1028.084835424551;;;5.791357441673844;42.53602408147196
46382;BME280;66809;52.974;-2.514;2023-02-04T06:03:34;1028.0907210825417;;;5.774471994818587;42.52544057747941
46382;BME280;66809;52.974;-2.514;2023-02-04T06:05:39;1028.0976230522035;;;5.76439418223939;42.516815822799195
46382;BME280;66809;52.974;-2.514;2023-02-04T06:07:35;1028.1040787786721;;;5.749805684740368;42.504598205890396
46382;BME280;66809;52.974;-2.514;2023-02-04T06:09:34;1028.1119508192198;;;5.729826098592718;42.48645043091138
46382;BME280;66809;52.974;-2.514;2023-02-04T06:11:34;1028.11969987672;;;5.730267473547129;42.46286381625904
46382;BME280;66809;52.974;-2.514;2023-02-04T06:13:34;1028.1274950064335;;;5.726267022778524;42.440842505290455
46382;BME280;66809;52.974;-2.514;2023-02-04T06:15:34;1028.1352601755837;;;5.725934938969263;42.41707673907294
46382;BME280;66809;52.974;-2.514;2023-02-04T06:17:34;1028.143418809506;;;5.734982222051326;42.39234783614588
46382;BME280;66809;52.974;-2.514;2023-02-04T06:19:34;1028.1520303620616;;;5.741241696810589;42.36402790841825
46382;BME280;66809;52.974;-2.514;2023-02-04T06:21:34;1028.159481966119;;;5.74885596571002;42.32977168539041
46382;BME280;66809;52.974;-2.514;2023-02-04T06:23:34;1028.1682104627278;;;5.770560572973713;42.279062171958635
46382;BME280;66809;52.974;-2.514;2023-02-04T06:25:35;1028.1783774940805;;;5.794551821658327;42.22825933104163
46382;BME280;66809;52.974;-2.514;2023-02-04T06:27:34;1028.1893973891306;;;5.817558489062646;42.1716091082984
46382;BME280;66809;52.974;-2.514;2023-02-04T06:29:34;1028.2000031495031;;;5.841916007847776;42.11466295488305
46382;BME280;66809;52.974;-2.514;2023-02-04T06:31:34;1028.2100366257894;;;5.867370832919272;42.05469525152386
46382;BME280;66809;52.974;-2.514;2023-02-04T06:33:35;1028.2203842484716;;;5.8970655141811;41.99063919936087
46382;BME280;66809;52.974;-2.514;2023-02-04T06:35:34;1028.2321295678396;;;5.917696295356778;41.921819860687876
46382;BME280;66809;52.974;-2.514;2023-02-04T06:37:34;1028.2458164506945;;;5.947401972165101;41.85787240493012
46382;BME280;66809;52.974;-2.514;2023-02-04T06:39:34;1028.2618776930397;;;5.983475743456162;41.78944320579716
46382;BME280;66809;52.974;-2.514;2023-02-04T06:41:34;1028.278036310165;;;6.019498733091883;41.720728376019835
46382;BME280;66809;52.974;-2.514;2023-02-04T06:43:34;1028.2936283208624;;;6.058070288277976;41.64684091790727
46382;BME280;66809;52.974;-2.514;2023-02-04T06:45:34;1028.3116408347626;;;6.098518516249609;41.57011740014063
46382;BME280;66809;52.974;-2.514;2023-02-04T06:47:34;1028.3299567439465;;;6.134584079688715;41.49358248766819
46382;BME280;66809;52.974;-2.514;2023-02-04T06:49:34;1028.348861115996;;;6.171769467026025;41.41110623344061
46382;BME280;66809;52.974;-2.514;2023-02-04T06:51:34;1028.3658935768633;;;6.216075846341498;41.32305653831384
46382;BME280;66809;52.974;-2.514;2023-02-04T06:53:34;1028.3841233702328;;;6.25850555129927;41.241256218615995
46382;BME280;66809;52.974;-2.514;2023-02-04T06:55:34;1028.402499218829;;;6.299367496595549;41.1560570316086
46382;BME280;66809;52.974;-2.514;2023-02-04T06:57:34;1028.4215656964554;;;6.327450833070352;41.06870812146119
46382;BME280;66809;52.974;-2.514;2023-02-04T06:59:36;1028.4406407754786;;;6.366736625323657;40.977083089774716
46382;BME280;66809;52.974;-2.514;2023-02-04T07:01:34;1028.4604626632836;;;6.399284272774062;40.88730862208323
46382;BME280;66809;52.974;-2.514;2023-02-04T07:03:34;1028.480084459762;;;6.433805046176957;40.80093442846124
46382;BME280;66809;52.974;-2.514;2023-02-04T07:05:34;1028.4985581246715;;;6.460236182160813;40.72127293985143
46382;BME280;66809;52.974;-2.514;2023-02-04T07:07:34;1028.5179431602667;;;6.483199759086394;40.64365086226305
46382;BME280;66809;52.974;-2.514;2023-02-04T07:09:36;1028.5360111489695;;;6.516083822290691;40.57030161203179
46382;BME280;66809;52.974;-2.514;2023-02-04T07:11:34;1028.5547273530237;;;6.537691326702207;40.49820154874753
46382;BME280;66809;52.974;-2.514;2023-02-04T07:13:34;1028.5720414025075;;;6.5538632373020445;40.42774870544592